createdAt,value
2023-04-16T00:01:57.823Z,6.28
2023-04-16T00:04:26.448Z,6.18
2023-04-16T00:06:56.555Z,6.08
2023-04-16T00:09:26.833Z,5.94
2023-04-16T00:12:00.495Z,5.90
2023-04-16T00:14:30.372Z,5.86
2023-04-16T00:17:00.256Z,5.85
2023-04-16T00:19:33.181Z,5.79
2023-04-16T00:22:02.246Z,5.69
2023-04-16T00:24:35.773Z,5.66
2023-04-16T00:27:07.659Z,5.56
2023-04-16T00:29:36.221Z,5.49
2023-04-16T00:32:04.525Z,5.53
2023-04-16T00:34:33.813Z,5.42
2023-04-16T00:37:02.432Z,5.59
2023-04-16T00:39:32.122Z,5.56
2023-04-16T00:42:02.008Z,5.49
2023-04-16T00:44:31.811Z,5.65
2023-04-16T00:47:02.164Z,5.56
2023-04-16T00:49:32.766Z,5.52
2023-04-16T00:52:04.018Z,5.65
2023-04-16T00:54:36.648Z,5.73
2023-04-16T00:57:06.234Z,5.87
2023-04-16T00:59:37.485Z,5.93
2023-04-16T01:02:06.397Z,5.80
2023-04-16T01:04:34.832Z,5.76
2023-04-16T01:07:03.318Z,5.87
2023-04-16T01:09:32.121Z,5.81
2023-04-16T01:12:01.650Z,5.74
2023-04-16T01:14:32.754Z,5.76
2023-04-16T01:17:03.915Z,5.87
2023-04-16T01:19:36.364Z,5.86
2023-04-16T01:22:07.839Z,6.03
2023-04-16T01:24:36.109Z,5.89
2023-04-16T01:27:05.480Z,5.96
2023-04-16T01:29:35.300Z,5.97
2023-04-16T01:32:04.007Z,5.90
2023-04-16T01:34:34.073Z,5.81
2023-04-16T01:37:02.239Z,6.08
2023-04-16T01:39:34.190Z,5.87
2023-04-16T01:42:08.057Z,5.81
2023-04-16T01:44:37.357Z,6.08
2023-04-16T01:47:06.986Z,6.01
2023-04-16T01:49:37.867Z,5.74
2023-04-16T01:52:08.660Z,5.69
2023-04-16T01:54:39.770Z,5.69
2023-04-16T01:57:08.331Z,5.29
2023-04-16T01:59:39.416Z,5.17
2023-04-16T02:02:11.425Z,5.14
2023-04-16T02:04:40.821Z,5.10
2023-04-16T02:07:10.638Z,5.07
2023-04-16T02:09:42.803Z,5.04
2023-04-16T02:12:11.964Z,5.05
2023-04-16T02:14:40.075Z,5.00
2023-04-16T02:17:09.776Z,4.95
2023-04-16T02:19:38.367Z,4.90
2023-04-16T02:22:07.107Z,4.91
2023-04-16T02:24:37.701Z,4.95
2023-04-16T02:27:08.261Z,4.91
2023-04-16T02:29:38.809Z,4.97
2023-04-16T02:32:08.260Z,4.83
2023-04-16T02:34:40.288Z,4.70
2023-04-16T02:37:08.686Z,4.57
2023-04-16T02:39:37.098Z,4.59
2023-04-16T02:42:06.754Z,4.60
2023-04-16T02:44:38.638Z,4.57
2023-04-16T02:47:08.569Z,4.53
2023-04-16T02:49:36.853Z,4.48
2023-04-16T02:52:05.526Z,4.35
2023-04-16T02:54:33.559Z,4.29
2023-04-16T02:57:02.803Z,4.23
2023-04-16T02:59:32.323Z,4.21
2023-04-16T03:02:02.402Z,4.14
2023-04-16T03:04:34.294Z,4.35
2023-04-16T03:07:03.859Z,4.25
2023-04-16T03:09:32.401Z,4.23
2023-04-16T03:12:01.800Z,4.25
2023-04-16T03:14:30.402Z,4.15
2023-04-16T03:16:58.806Z,4.14
2023-04-16T03:19:34.908Z,4.11
2023-04-16T03:22:04.126Z,4.14
2023-04-16T03:24:34.090Z,3.93
2023-04-16T03:27:03.095Z,3.91
2023-04-16T03:29:31.926Z,3.97
2023-04-16T03:31:59.837Z,4.06
2023-04-16T03:34:28.147Z,4.25
2023-04-16T03:36:59.444Z,4.43
2023-04-16T03:39:30.611Z,4.41
2023-04-16T03:41:59.509Z,4.39
2023-04-16T03:44:28.291Z,4.38
2023-04-16T03:46:57.589Z,4.71
2023-04-16T03:49:27.538Z,4.69
2023-04-16T03:51:55.682Z,4.48
2023-04-16T03:54:25.240Z,4.28
2023-04-16T03:56:54.335Z,4.26
2023-04-16T03:59:22.778Z,4.22
2023-04-16T04:01:51.340Z,4.42
2023-04-16T04:04:19.868Z,4.42
2023-04-16T04:06:48.120Z,4.42
2023-04-16T04:09:17.606Z,4.45
2023-04-16T04:11:48.921Z,4.52
2023-04-16T04:14:17.841Z,4.23
2023-04-16T04:16:46.876Z,4.15
2023-04-16T04:19:14.900Z,4.36
2023-04-16T04:21:43.686Z,4.49
2023-04-16T04:24:12.096Z,4.74
2023-04-16T04:26:40.459Z,4.95
2023-04-16T04:29:11.193Z,4.97
2023-04-16T04:31:41.174Z,5.11
2023-04-16T04:34:11.350Z,5.18
2023-04-16T04:36:40.502Z,5.27
2023-04-16T04:39:09.370Z,5.39
2023-04-16T04:41:38.726Z,5.50
2023-04-16T04:44:06.974Z,5.55
2023-04-16T04:46:37.823Z,5.43
2023-04-16T04:49:07.999Z,5.31
2023-04-16T04:51:36.515Z,5.22
2023-04-16T04:54:11.531Z,5.31
2023-04-16T04:56:40.037Z,5.48
2023-04-16T04:59:12.584Z,5.43
2023-04-16T05:01:44.993Z,5.49
2023-04-16T05:04:13.534Z,5.59
2023-04-16T05:06:42.537Z,5.70
2023-04-16T05:09:12.058Z,5.79
2023-04-16T05:11:47.401Z,5.91
2023-04-16T05:14:16.893Z,5.97
2023-04-16T05:16:47.043Z,5.97
2023-04-16T05:19:15.569Z,6.07
2023-04-16T05:21:48.484Z,6.24
2023-04-16T05:24:19.239Z,6.24
2023-04-16T05:26:48.480Z,6.22
2023-04-16T05:29:17.993Z,6.25
2023-04-16T05:31:49.521Z,6.32
2023-04-16T05:34:18.896Z,6.46
2023-04-16T05:36:47.012Z,6.53
2023-04-16T05:39:18.605Z,6.65
2023-04-16T05:41:47.667Z,6.72
2023-04-16T05:44:17.987Z,6.80
2023-04-16T05:46:48.019Z,6.86
2023-04-16T05:49:19.062Z,6.92
2023-04-16T05:51:47.406Z,6.93
2023-04-16T05:54:16.335Z,7.03
2023-04-16T05:56:44.632Z,7.01
2023-04-16T05:59:12.674Z,7.08
2023-04-16T06:01:40.973Z,7.10
2023-04-16T06:04:10.968Z,7.21
2023-04-16T06:06:42.319Z,7.34
2023-04-16T06:09:10.840Z,7.34
2023-04-16T06:11:39.431Z,7.51
2023-04-16T06:14:09.530Z,7.59
2023-04-16T06:16:39.428Z,7.73
2023-04-16T06:19:08.130Z,7.81
2023-04-16T06:21:38.967Z,7.87
2023-04-16T06:24:07.981Z,8.09
2023-04-16T06:26:37.316Z,8.10
2023-04-16T06:29:05.589Z,8.14
2023-04-16T06:31:33.978Z,8.29
2023-04-16T06:34:05.111Z,8.38
2023-04-16T06:36:33.826Z,8.67
2023-04-16T06:39:06.588Z,8.72
2023-04-16T06:41:35.489Z,8.99
2023-04-16T06:44:03.654Z,9.02
2023-04-16T06:46:32.473Z,9.26
2023-04-16T06:49:00.831Z,9.37
2023-04-16T06:51:28.910Z,9.55
2023-04-16T06:53:57.231Z,9.57
2023-04-16T06:56:28.485Z,9.65
2023-04-16T06:58:59.310Z,9.86
2023-04-16T07:01:31.761Z,9.91
2023-04-16T07:04:00.145Z,10.02
2023-04-16T07:06:28.655Z,10.17
2023-04-16T07:08:58.740Z,10.08
2023-04-16T07:11:28.767Z,10.26
2023-04-16T07:13:57.809Z,10.30
2023-04-16T07:16:26.088Z,10.42
2023-04-16T07:18:55.031Z,10.61
2023-04-16T07:21:23.871Z,10.50
2023-04-16T07:23:54.083Z,10.59
2023-04-16T07:26:22.337Z,10.65
2023-04-16T07:28:52.007Z,10.56
2023-04-16T07:31:20.841Z,10.57
2023-04-16T07:33:52.449Z,10.59
2023-04-16T07:36:21.479Z,10.77
2023-04-16T07:38:50.377Z,10.68
2023-04-16T07:41:19.394Z,10.71
2023-04-16T07:43:47.458Z,10.95
2023-04-16T07:46:17.305Z,11.14
2023-04-16T07:48:46.690Z,11.00
2023-04-16T07:51:14.955Z,11.09
2023-04-16T07:53:43.689Z,11.25
2023-04-16T07:56:11.981Z,11.62
2023-04-16T07:58:40.025Z,11.60
2023-04-16T08:01:09.888Z,11.69
2023-04-16T08:03:40.515Z,11.69
2023-04-16T08:06:08.910Z,12.22
2023-04-16T08:08:41.532Z,12.04
2023-04-16T08:11:09.929Z,12.34
2023-04-16T08:13:39.499Z,12.22
2023-04-16T08:16:11.512Z,12.25
2023-04-16T08:18:44.859Z,12.44
2023-04-16T08:21:13.653Z,12.84
2023-04-16T08:23:42.456Z,12.77
2023-04-16T08:26:10.603Z,12.87
2023-04-16T08:28:39.802Z,12.83
2023-04-16T08:31:08.318Z,12.77
2023-04-16T08:33:36.524Z,12.67
2023-04-16T08:36:07.191Z,12.75
2023-04-16T08:38:35.615Z,12.97
2023-04-16T08:41:08.036Z,12.96
2023-04-16T08:43:37.437Z,13.30
2023-04-16T08:46:06.341Z,13.25
2023-04-16T08:48:35.289Z,13.35
2023-04-16T08:51:04.511Z,13.42
2023-04-16T08:53:37.455Z,13.41
2023-04-16T08:56:06.739Z,13.30
2023-04-16T08:58:35.794Z,13.04
2023-04-16T09:01:06.027Z,13.63
2023-04-16T09:03:36.965Z,14.06
2023-04-16T09:06:05.812Z,13.95
2023-04-16T09:08:39.470Z,13.87
2023-04-16T09:11:08.511Z,14.28
2023-04-16T09:13:39.723Z,14.42
2023-04-16T09:16:09.267Z,14.57
2023-04-16T09:18:38.388Z,14.81
2023-04-16T09:21:11.140Z,14.41
2023-04-16T09:23:41.900Z,14.65
2023-04-16T09:26:11.708Z,14.96
2023-04-16T09:28:42.638Z,15.25
2023-04-16T09:31:12.575Z,15.30
2023-04-16T09:33:41.274Z,15.32
2023-04-16T09:36:11.760Z,15.29
2023-04-16T09:38:51.375Z,15.54
2023-04-16T09:41:26.035Z,15.70
2023-04-16T09:44:00.549Z,15.63
2023-04-16T09:46:32.315Z,15.57
2023-04-16T09:49:07.348Z,15.34
2023-04-16T09:51:40.739Z,15.64
2023-04-16T09:54:11.007Z,15.60
2023-04-16T09:56:41.765Z,15.40
2023-04-16T09:59:10.863Z,15.42
2023-04-16T10:01:40.796Z,15.71
2023-04-16T10:04:12.080Z,15.80
2023-04-16T10:06:40.333Z,16.00
2023-04-16T10:09:09.144Z,15.33
2023-04-16T10:11:40.590Z,15.42
2023-04-16T10:14:10.467Z,15.12
2023-04-16T10:16:41.755Z,15.30
2023-04-16T10:19:10.304Z,15.33
2023-04-16T10:21:38.676Z,15.26
2023-04-16T10:24:08.426Z,15.67
2023-04-16T10:26:36.819Z,15.44
2023-04-16T10:29:07.929Z,15.23
2023-04-16T10:31:36.952Z,15.46
2023-04-16T10:34:06.738Z,16.02
2023-04-16T10:36:38.322Z,15.91
2023-04-16T10:39:11.091Z,15.85
2023-04-16T10:41:40.032Z,16.23
2023-04-16T10:44:11.097Z,16.81
2023-04-16T10:46:39.800Z,16.97
2023-04-16T10:49:15.989Z,17.17
2023-04-16T10:51:53.476Z,16.12
2023-04-16T10:54:24.640Z,17.17
2023-04-16T10:56:53.370Z,16.59
2023-04-16T10:59:24.186Z,17.06
2023-04-16T11:01:54.893Z,17.14
2023-04-16T11:04:31.460Z,16.60
2023-04-16T11:07:02.330Z,17.34
2023-04-16T11:09:47.694Z,16.95
2023-04-16T11:12:18.682Z,17.45
2023-04-16T11:14:50.498Z,17.46
2023-04-16T11:17:19.055Z,17.29
2023-04-16T11:19:50.409Z,17.39
2023-04-16T11:22:22.184Z,17.28
2023-04-16T11:24:55.475Z,16.76
2023-04-16T11:27:23.810Z,16.95
2023-04-16T11:30:00.548Z,16.66
2023-04-16T11:32:30.185Z,17.27
2023-04-16T11:35:00.554Z,17.21
2023-04-16T11:37:33.994Z,17.52
2023-04-16T11:40:02.630Z,17.70
2023-04-16T11:42:30.926Z,18.17
2023-04-16T11:45:01.791Z,18.05
2023-04-16T11:47:32.467Z,18.31
2023-04-16T11:50:15.869Z,18.38
2023-04-16T11:52:43.836Z,18.21
2023-04-16T11:55:12.793Z,17.45
2023-04-16T11:57:41.607Z,17.79
2023-04-16T12:00:14.176Z,17.59
2023-04-16T12:02:43.284Z,17.29
2023-04-16T12:05:27.786Z,17.39
2023-04-16T12:07:56.750Z,17.43
2023-04-16T12:10:27.824Z,17.87
2023-04-16T12:13:11.526Z,17.93
2023-04-16T12:15:51.065Z,18.05
2023-04-16T12:18:23.179Z,17.25
2023-04-16T12:20:52.177Z,17.18
2023-04-16T12:23:24.313Z,17.43
2023-04-16T12:25:52.268Z,17.73
2023-04-16T12:28:38.528Z,17.80
2023-04-16T12:31:08.575Z,17.17
2023-04-16T12:33:36.738Z,17.08
2023-04-16T12:36:24.759Z,17.55
2023-04-16T12:38:53.176Z,17.57
2023-04-16T12:41:21.197Z,17.97
2023-04-16T12:43:49.400Z,17.42
2023-04-16T12:46:18.905Z,17.86
2023-04-16T12:48:47.068Z,18.04
2023-04-16T12:51:15.225Z,17.80
2023-04-16T12:53:44.134Z,17.67
2023-04-16T12:56:13.011Z,17.84
2023-04-16T12:58:43.616Z,17.94
2023-04-16T13:01:13.150Z,17.97
2023-04-16T13:03:43.698Z,18.24
2023-04-16T13:06:12.583Z,18.03
2023-04-16T13:08:47.881Z,17.62
2023-04-16T13:11:16.269Z,17.75
2023-04-16T13:13:45.100Z,17.35
2023-04-16T13:16:14.253Z,17.61
2023-04-16T13:18:44.205Z,17.40
2023-04-16T13:21:13.221Z,17.36
2023-04-16T13:23:41.449Z,17.35
2023-04-16T13:26:09.772Z,17.27
2023-04-16T13:28:39.336Z,17.42
2023-04-16T13:31:09.055Z,17.67
2023-04-16T13:33:38.562Z,18.01
2023-04-16T13:36:09.032Z,18.13
2023-04-16T13:38:39.591Z,17.77
2023-04-16T13:41:07.896Z,17.93
2023-04-16T13:43:37.471Z,17.89
2023-04-16T13:46:07.016Z,17.53
2023-04-16T13:48:40.685Z,17.50
2023-04-16T13:51:10.912Z,17.43
2023-04-16T13:53:42.855Z,17.36
2023-04-16T13:56:12.022Z,17.96
2023-04-16T13:58:41.504Z,18.40
2023-04-16T14:01:11.234Z,18.05
2023-04-16T14:03:40.917Z,18.08
2023-04-16T14:06:11.723Z,18.14
2023-04-16T14:08:44.762Z,17.69
2023-04-16T14:11:12.993Z,18.17
2023-04-16T14:13:44.571Z,18.51
2023-04-16T14:16:16.966Z,18.96
2023-04-16T14:18:48.929Z,18.47
2023-04-16T14:21:19.551Z,18.41
2023-04-16T14:23:48.127Z,18.49
2023-04-16T14:26:16.875Z,18.35
2023-04-16T14:28:45.900Z,18.48
2023-04-16T14:31:15.263Z,18.53
2023-04-16T14:33:43.785Z,18.10
2023-04-16T14:36:14.663Z,18.10
2023-04-16T14:38:47.520Z,18.31
2023-04-16T14:41:17.730Z,18.49
2023-04-16T14:43:47.093Z,18.28
2023-04-16T14:46:18.065Z,18.44
2023-04-16T14:48:47.779Z,18.08
2023-04-16T14:51:17.372Z,18.31
2023-04-16T14:53:49.001Z,18.03
2023-04-16T14:56:17.177Z,18.05
2023-04-16T14:58:45.542Z,18.01
2023-04-16T15:01:17.226Z,18.14
2023-04-16T15:03:46.033Z,18.25
2023-04-16T15:06:16.586Z,18.01
2023-04-16T15:08:45.167Z,18.14
2023-04-16T15:11:15.374Z,18.04
2023-04-16T15:13:43.556Z,17.93
2023-04-16T15:16:14.581Z,18.05
2023-04-16T15:18:43.277Z,17.93
2023-04-16T15:21:12.760Z,17.67
2023-04-16T15:23:43.128Z,17.63
2023-04-16T15:26:12.001Z,17.56
2023-04-16T15:28:41.714Z,17.50
2023-04-16T15:31:10.276Z,17.57
2023-04-16T15:33:42.277Z,17.53
2023-04-16T15:36:12.164Z,17.39
2023-04-16T15:38:42.264Z,17.29
2023-04-16T15:41:11.607Z,17.14
2023-04-16T15:43:42.635Z,17.19
2023-04-16T15:46:11.171Z,17.10
2023-04-16T15:48:45.852Z,17.00
2023-04-16T15:51:15.291Z,16.91
2023-04-16T15:53:45.546Z,16.81
2023-04-16T15:56:14.252Z,16.80
2023-04-16T15:58:44.674Z,16.83
2023-04-16T16:01:14.578Z,16.76
2023-04-16T16:03:42.941Z,16.57
2023-04-16T16:06:13.598Z,16.63
2023-04-16T16:08:44.247Z,16.64
2023-04-16T16:11:13.516Z,16.63
2023-04-16T16:13:44.342Z,16.60
2023-04-16T16:16:14.974Z,16.52
2023-04-16T16:18:44.969Z,16.55
2023-04-16T16:21:17.876Z,16.43
2023-04-16T16:23:46.813Z,16.33
2023-04-16T16:26:15.834Z,16.36
2023-04-16T16:28:46.293Z,16.32
2023-04-16T16:31:17.582Z,16.32
2023-04-16T16:33:48.717Z,16.28
2023-04-16T16:36:17.613Z,16.23
2023-04-16T16:38:47.895Z,16.22
2023-04-16T16:41:16.501Z,16.18
2023-04-16T16:43:45.331Z,16.13
2023-04-16T16:46:13.605Z,16.11
2023-04-16T16:48:44.286Z,16.05
2023-04-16T16:51:19.020Z,16.01
2023-04-16T16:53:47.441Z,15.92
2023-04-16T16:56:16.004Z,15.98
2023-04-16T16:58:47.528Z,15.90
2023-04-16T17:01:16.899Z,15.94
2023-04-16T17:03:46.582Z,15.91
2023-04-16T17:06:14.945Z,15.80
2023-04-16T17:08:43.583Z,15.73
2023-04-16T17:11:11.977Z,15.63
2023-04-16T17:13:40.674Z,15.67
2023-04-16T17:16:10.108Z,15.70
2023-04-16T17:18:40.822Z,15.64
2023-04-16T17:21:13.553Z,15.54
2023-04-16T17:23:45.058Z,15.42
2023-04-16T17:26:16.976Z,15.43
2023-04-16T17:28:46.678Z,15.47
2023-04-16T17:31:16.403Z,15.43
2023-04-16T17:33:49.489Z,15.34
2023-04-16T17:36:19.622Z,15.30
2023-04-16T17:38:47.864Z,15.25
2023-04-16T17:41:16.224Z,15.12
2023-04-16T17:43:44.860Z,15.16
2023-04-16T17:46:13.174Z,15.12
2023-04-16T17:48:42.270Z,15.16
2023-04-16T17:51:11.290Z,15.12
2023-04-16T17:53:42.614Z,15.13
2023-04-16T17:56:11.158Z,14.98
2023-04-16T17:58:40.453Z,14.92
2023-04-16T18:01:09.034Z,14.82
2023-04-16T18:03:38.710Z,14.74
2023-04-16T18:06:07.108Z,14.72
2023-04-16T18:08:37.130Z,14.64
2023-04-16T18:11:09.280Z,14.42
2023-04-16T18:13:39.805Z,14.49
2023-04-16T18:16:09.973Z,14.38
2023-04-16T18:18:37.981Z,14.38
2023-04-16T18:21:06.769Z,14.37
2023-04-16T18:23:36.817Z,14.30
2023-04-16T18:26:07.637Z,14.34
2023-04-16T18:28:39.769Z,14.40
2023-04-16T18:31:14.075Z,14.24
2023-04-16T18:36:21.195Z,13.96
2023-04-16T18:39:00.943Z,13.95
2023-04-16T18:41:30.934Z,13.86
2023-04-16T18:44:01.754Z,13.87
2023-04-16T18:46:30.576Z,13.78
2023-04-16T18:48:59.701Z,13.76
2023-04-16T18:51:28.627Z,13.75
2023-04-16T18:53:58.897Z,13.69
2023-04-16T18:56:27.031Z,13.65
2023-04-16T18:58:55.462Z,13.63
2023-04-16T19:01:25.636Z,13.72
2023-04-16T19:03:56.876Z,13.57
2023-04-16T19:06:28.282Z,13.55
2023-04-16T19:08:56.605Z,13.48
2023-04-16T19:11:25.737Z,13.42
2023-04-16T19:13:54.098Z,13.35
2023-04-16T19:16:22.464Z,13.41
2023-04-16T19:18:54.097Z,13.34
2023-04-16T19:21:22.668Z,13.37
2023-04-16T19:23:51.047Z,13.24
2023-04-16T19:26:19.573Z,13.23
2023-04-16T19:28:48.706Z,13.24
2023-04-16T19:31:18.942Z,13.17
2023-04-16T19:33:47.156Z,13.13
2023-04-16T19:36:17.638Z,13.21
2023-04-16T19:38:46.118Z,13.15
2023-04-16T19:41:16.921Z,13.18
2023-04-16T19:43:46.052Z,13.10
2023-04-16T19:46:16.916Z,13.11
2023-04-16T19:48:46.163Z,13.15
2023-04-16T19:51:17.747Z,13.18
2023-04-16T19:53:49.111Z,13.10
2023-04-16T19:56:17.649Z,13.10
2023-04-16T19:58:46.609Z,13.06
2023-04-16T20:01:16.992Z,13.10
2023-04-16T20:03:45.750Z,13.02
2023-04-16T20:06:17.544Z,13.06
2023-04-16T20:08:48.355Z,12.99
2023-04-16T20:11:17.701Z,12.96
2023-04-16T20:13:48.053Z,13.04
2023-04-16T20:16:17.488Z,13.02
2023-04-16T20:18:46.100Z,12.97
2023-04-16T20:21:15.445Z,12.87
2023-04-16T20:23:43.683Z,12.92
2023-04-16T20:26:15.335Z,13.02
2023-04-16T20:28:45.293Z,12.99
2023-04-16T20:31:14.980Z,13.00
2023-04-16T20:33:42.961Z,12.93
2023-04-16T20:36:11.820Z,12.97
2023-04-16T20:38:42.583Z,12.86
2023-04-16T20:41:25.425Z,12.80
2023-04-16T20:44:10.262Z,12.83
2023-04-16T20:46:40.304Z,12.86
2023-04-16T20:49:09.675Z,12.86
2023-04-16T20:51:39.821Z,12.82
2023-04-16T20:54:10.268Z,12.90
2023-04-16T20:56:38.469Z,12.84
2023-04-16T20:59:10.356Z,12.92
2023-04-16T21:01:38.898Z,12.86
2023-04-16T21:04:09.492Z,12.80
2023-04-16T21:06:38.766Z,12.75
2023-04-16T21:09:07.112Z,12.83
2023-04-16T21:11:36.125Z,12.90
2023-04-16T21:14:09.719Z,12.79
2023-04-16T21:16:40.675Z,12.87
2023-04-16T21:19:09.766Z,12.84
2023-04-16T21:21:40.086Z,13.04
2023-04-16T21:24:11.282Z,13.07
2023-04-16T21:26:46.395Z,12.96
2023-04-16T21:29:14.443Z,12.94
2023-04-16T21:31:46.623Z,12.79
2023-04-16T21:34:16.638Z,12.87
2023-04-16T21:36:46.818Z,12.76
2023-04-16T21:39:17.973Z,12.73
2023-04-16T21:41:46.069Z,12.65
2023-04-16T21:44:15.168Z,12.65
2023-04-16T21:46:46.680Z,12.63
2023-04-16T21:49:14.840Z,12.55
2023-04-16T21:51:46.158Z,12.52
2023-04-16T21:54:18.126Z,12.49
2023-04-16T21:56:46.260Z,12.57
2023-04-16T21:59:14.477Z,12.52
2023-04-16T22:01:44.553Z,12.53
2023-04-16T22:04:14.442Z,12.50
2023-04-16T22:06:43.804Z,12.49
2023-04-16T22:09:12.281Z,12.57
2023-04-16T22:11:40.884Z,12.46
2023-04-16T22:14:09.391Z,12.46
2023-04-16T22:16:40.207Z,12.52
2023-04-16T22:19:10.559Z,12.49
2023-04-16T22:21:38.726Z,12.50
2023-04-16T22:24:07.266Z,12.46
2023-04-16T22:26:36.260Z,12.44
2023-04-16T22:29:04.668Z,12.39
2023-04-16T22:31:34.440Z,12.34
2023-04-16T22:34:03.828Z,12.38
2023-04-16T22:36:34.219Z,12.31
2023-04-16T22:39:02.701Z,12.35
2023-04-16T22:41:31.278Z,12.21
2023-04-16T22:44:00.571Z,12.25
2023-04-16T22:46:31.628Z,12.28
2023-04-16T22:49:01.014Z,12.36
2023-04-16T22:51:30.768Z,12.35
2023-04-16T22:54:01.686Z,12.29
2023-04-16T22:56:31.742Z,12.29
2023-04-16T22:59:00.719Z,12.31
2023-04-16T23:01:29.495Z,12.20
2023-04-16T23:03:58.729Z,12.21
2023-04-16T23:06:28.828Z,12.31
2023-04-16T23:08:57.952Z,12.22
2023-04-16T23:11:28.750Z,12.22
2023-04-16T23:13:57.252Z,12.25
2023-04-16T23:16:28.005Z,12.25
2023-04-16T23:18:56.570Z,12.24
2023-04-16T23:21:25.490Z,12.28
2023-04-16T23:23:55.222Z,12.24
2023-04-16T23:26:23.745Z,12.18
2023-04-16T23:28:53.367Z,12.22
2023-04-16T23:31:22.425Z,12.24
2023-04-16T23:33:51.355Z,12.22
2023-04-16T23:36:19.302Z,12.18
2023-04-16T23:38:49.060Z,12.17
2023-04-16T23:41:18.252Z,12.22
2023-04-16T23:43:47.118Z,12.20
2023-04-16T23:46:17.747Z,12.20
2023-04-16T23:48:51.362Z,12.20
2023-04-16T23:51:21.146Z,12.22
2023-04-16T23:53:50.483Z,12.17
2023-04-16T23:56:18.704Z,12.14
2023-04-16T23:58:48.199Z,12.25
